sensor_id;sensor_type;location;lat;lon;timestamp;temperature;humidity
17893;DHT22;9072;51.918;4.380;2023-09-12T00:01:34;18.00;99.90
17893;DHT22;9072;51.918;4.380;2023-09-12T00:04:04;17.90;99.90
17893;DHT22;9072;51.918;4.380;2023-09-12T00:06:45;17.90;99.90
17893;DHT22;9072;51.918;4.380;2023-09-12T00:09:22;17.80;99.90
17893;DHT22;9072;51.918;4.380;2023-09-12T00:12:01;17.80;99.90
17893;DHT22;9072;51.918;4.380;2023-09-12T00:14:34;17.80;99.90
17893;DHT22;9072;51.918;4.380;2023-09-12T00:17:22;17.80;99.90
17893;DHT22;9072;51.918;4.380;2023-09-12T00:19:55;17.70;99.90
17893;DHT22;9072;51.918;4.380;2023-09-12T00:22:22;17.70;99.90
17893;DHT22;9072;51.918;4.380;2023-09-12T00:24:58;17.70;99.90
17893;DHT22;9072;51.918;4.380;2023-09-12T00:27:36;17.70;99.90
17893;DHT22;9072;51.918;4.380;2023-09-12T00:30:17;17.70;99.90
17893;DHT22;9072;51.918;4.380;2023-09-12T00:32:49;17.70;99.90
17893;DHT22;9072;51.918;4.380;2023-09-12T00:35:24;17.70;99.90
17893;DHT22;9072;51.918;4.380;2023-09-12T00:37:54;17.60;99.90
17893;DHT22;9072;51.918;4.380;2023-09-12T00:40:28;17.60;99.90
17893;DHT22;9072;51.918;4.380;2023-09-12T00:43:01;17.60;99.90
17893;DHT22;9072;51.918;4.380;2023-09-12T00:45:48;17.50;99.90
17893;DHT22;9072;51.918;4.380;2023-09-12T00:48:20;17.50;99.90
17893;DHT22;9072;51.918;4.380;2023-09-12T00:50:53;17.50;99.90
17893;DHT22;9072;51.918;4.380;2023-09-12T00:53:29;17.40;99.90
17893;DHT22;9072;51.918;4.380;2023-09-12T00:56:01;17.40;99.90
17893;DHT22;9072;51.918;4.380;2023-09-12T00:58:43;17.40;99.90
17893;DHT22;9072;51.918;4.380;2023-09-12T01:01:32;17.40;99.90
17893;DHT22;9072;51.918;4.380;2023-09-12T01:04:06;17.40;99.90
17893;DHT22;9072;51.918;4.380;2023-09-12T01:06:45;17.40;99.90
17893;DHT22;9072;51.918;4.380;2023-09-12T01:09:26;17.30;99.90
17893;DHT22;9072;51.918;4.380;2023-09-12T01:12:02;17.30;99.90
17893;DHT22;9072;51.918;4.380;2023-09-12T01:14:48;17.30;99.90
17893;DHT22;9072;51.918;4.380;2023-09-12T01:17:41;17.40;99.90
17893;DHT22;9072;51.918;4.380;2023-09-12T01:20:16;17.30;99.90
17893;DHT22;9072;51.918;4.380;2023-09-12T01:22:59;17.30;99.90
17893;DHT22;9072;51.918;4.380;2023-09-12T01:28:57;17.30;99.90
17893;DHT22;9072;51.918;4.380;2023-09-12T01:31:38;17.40;99.90
17893;DHT22;9072;51.918;4.380;2023-09-12T01:34:14;17.40;99.90
17893;DHT22;9072;51.918;4.380;2023-09-12T01:36:48;17.30;99.90
17893;DHT22;9072;51.918;4.380;2023-09-12T01:39:15;17.30;99.90
17893;DHT22;9072;51.918;4.380;2023-09-12T01:41:50;17.30;99.90
17893;DHT22;9072;51.918;4.380;2023-09-12T01:44:41;17.30;99.90
17893;DHT22;9072;51.918;4.380;2023-09-12T01:47:16;17.20;99.90
17893;DHT22;9072;51.918;4.380;2023-09-12T01:49:49;17.30;99.90
17893;DHT22;9072;51.918;4.380;2023-09-12T01:52:28;17.30;99.90
17893;DHT22;9072;51.918;4.380;2023-09-12T01:55:11;17.40;99.90
17893;DHT22;9072;51.918;4.380;2023-09-12T01:57:58;17.40;99.90
17893;DHT22;9072;51.918;4.380;2023-09-12T02:00:35;17.40;99.90
17893;DHT22;9072;51.918;4.380;2023-09-12T02:03:08;17.50;99.90
17893;DHT22;9072;51.918;4.380;2023-09-12T02:05:49;17.50;99.90
17893;DHT22;9072;51.918;4.380;2023-09-12T02:08:24;17.50;99.90
17893;DHT22;9072;51.918;4.380;2023-09-12T02:10:54;17.50;99.90
17893;DHT22;9072;51.918;4.380;2023-09-12T02:13:31;17.50;99.90
17893;DHT22;9072;51.918;4.380;2023-09-12T02:16:08;17.50;99.90
17893;DHT22;9072;51.918;4.380;2023-09-12T02:18:53;17.50;99.90
17893;DHT22;9072;51.918;4.380;2023-09-12T02:21:23;17.60;99.90
17893;DHT22;9072;51.918;4.380;2023-09-12T02:23:54;17.70;99.90
17893;DHT22;9072;51.918;4.380;2023-09-12T02:26:34;17.80;99.90
17893;DHT22;9072;51.918;4.380;2023-09-12T02:29:11;17.80;99.90
17893;DHT22;9072;51.918;4.380;2023-09-12T02:32:10;17.90;99.90
17893;DHT22;9072;51.918;4.380;2023-09-12T02:34:53;18.00;99.90
17893;DHT22;9072;51.918;4.380;2023-09-12T02:37:24;18.00;99.90
17893;DHT22;9072;51.918;4.380;2023-09-12T02:40:03;18.10;99.90
17893;DHT22;9072;51.918;4.380;2023-09-12T02:42:37;18.10;99.90
17893;DHT22;9072;51.918;4.380;2023-09-12T02:45:05;18.20;99.90
17893;DHT22;9072;51.918;4.380;2023-09-12T02:47:50;18.20;99.90
17893;DHT22;9072;51.918;4.380;2023-09-12T02:50:28;18.20;99.90
17893;DHT22;9072;51.918;4.380;2023-09-12T02:53:02;18.20;99.90
17893;DHT22;9072;51.918;4.380;2023-09-12T02:55:32;18.20;99.90
17893;DHT22;9072;51.918;4.380;2023-09-12T02:58:03;18.20;99.90
17893;DHT22;9072;51.918;4.380;2023-09-12T03:00:40;18.20;99.90
17893;DHT22;9072;51.918;4.380;2023-09-12T03:03:17;18.20;99.90
17893;DHT22;9072;51.918;4.380;2023-09-12T03:06:20;18.20;99.90
17893;DHT22;9072;51.918;4.380;2023-09-12T03:09:27;18.30;99.90
17893;DHT22;9072;51.918;4.380;2023-09-12T03:12:10;18.30;99.90
17893;DHT22;9072;51.918;4.380;2023-09-12T03:14:46;18.30;99.90
17893;DHT22;9072;51.918;4.380;2023-09-12T03:17:18;18.30;99.90
17893;DHT22;9072;51.918;4.380;2023-09-12T03:19:58;18.30;99.90
17893;DHT22;9072;51.918;4.380;2023-09-12T03:22:28;18.30;99.90
17893;DHT22;9072;51.918;4.380;2023-09-12T03:25:03;18.30;99.90
17893;DHT22;9072;51.918;4.380;2023-09-12T03:27:36;18.40;99.90
17893;DHT22;9072;51.918;4.380;2023-09-12T03:30:09;18.40;99.90
17893;DHT22;9072;51.918;4.380;2023-09-12T03:32:44;18.30;99.90
17893;DHT22;9072;51.918;4.380;2023-09-12T03:35:35;18.40;99.90
17893;DHT22;9072;51.918;4.380;2023-09-12T03:38:09;18.40;99.90
17893;DHT22;9072;51.918;4.380;2023-09-12T03:40:50;18.40;99.90
17893;DHT22;9072;51.918;4.380;2023-09-12T03:43:19;18.40;99.90
17893;DHT22;9072;51.918;4.380;2023-09-12T03:45:49;18.50;99.90
17893;DHT22;9072;51.918;4.380;2023-09-12T03:48:20;18.50;99.90
17893;DHT22;9072;51.918;4.380;2023-09-12T03:50:55;18.50;99.90
17893;DHT22;9072;51.918;4.380;2023-09-12T03:53:28;18.50;99.90
17893;DHT22;9072;51.918;4.380;2023-09-12T03:55:58;18.60;99.90
17893;DHT22;9072;51.918;4.380;2023-09-12T03:58:31;18.60;99.90
17893;DHT22;9072;51.918;4.380;2023-09-12T04:01:03;18.60;99.90
17893;DHT22;9072;51.918;4.380;2023-09-12T04:03:33;18.60;99.90
17893;DHT22;9072;51.918;4.380;2023-09-12T04:06:09;18.60;99.90
17893;DHT22;9072;51.918;4.380;2023-09-12T04:08:47;18.60;99.90
17893;DHT22;9072;51.918;4.380;2023-09-12T04:11:30;18.60;99.90
17893;DHT22;9072;51.918;4.380;2023-09-12T04:14:10;18.60;99.90
17893;DHT22;9072;51.918;4.380;2023-09-12T04:16:44;18.60;99.90
17893;DHT22;9072;51.918;4.380;2023-09-12T04:19:19;18.70;99.90
17893;DHT22;9072;51.918;4.380;2023-09-12T04:21:53;18.60;99.90
17893;DHT22;9072;51.918;4.380;2023-09-12T04:24:24;18.60;99.90
17893;DHT22;9072;51.918;4.380;2023-09-12T04:26:55;18.60;99.90
17893;DHT22;9072;51.918;4.380;2023-09-12T04:29:34;18.60;99.90
17893;DHT22;9072;51.918;4.380;2023-09-12T04:32:02;18.70;99.90
17893;DHT22;9072;51.918;4.380;2023-09-12T04:34:30;18.60;99.90
17893;DHT22;9072;51.918;4.380;2023-09-12T04:37:02;18.60;99.90
17893;DHT22;9072;51.918;4.380;2023-09-12T04:39:31;18.60;99.90
17893;DHT22;9072;51.918;4.380;2023-09-12T04:41:58;18.60;99.90
17893;DHT22;9072;51.918;4.380;2023-09-12T04:44:27;18.70;99.90
17893;DHT22;9072;51.918;4.380;2023-09-12T04:46:56;18.70;99.90
17893;DHT22;9072;51.918;4.380;2023-09-12T04:49:25;18.60;99.90
17893;DHT22;9072;51.918;4.380;2023-09-12T04:51:54;18.70;99.90
17893;DHT22;9072;51.918;4.380;2023-09-12T04:54:22;18.60;99.90
17893;DHT22;9072;51.918;4.380;2023-09-12T04:56:50;18.70;99.90
17893;DHT22;9072;51.918;4.380;2023-09-12T04:59:28;18.70;99.90
17893;DHT22;9072;51.918;4.380;2023-09-12T05:01:57;18.70;99.90
17893;DHT22;9072;51.918;4.380;2023-09-12T05:04:43;18.60;99.90
17893;DHT22;9072;51.918;4.380;2023-09-12T05:07:14;18.60;99.90
17893;DHT22;9072;51.918;4.380;2023-09-12T05:09:55;18.60;99.90
17893;DHT22;9072;51.918;4.380;2023-09-12T05:12:24;18.60;99.90
17893;DHT22;9072;51.918;4.380;2023-09-12T05:14:59;18.60;99.90
17893;DHT22;9072;51.918;4.380;2023-09-12T05:17:28;18.60;99.90
17893;DHT22;9072;51.918;4.380;2023-09-12T05:19:55;18.60;99.90
17893;DHT22;9072;51.918;4.380;2023-09-12T05:22:23;18.60;99.90
17893;DHT22;9072;51.918;4.380;2023-09-12T05:24:51;18.60;99.90
17893;DHT22;9072;51.918;4.380;2023-09-12T05:27:20;18.60;99.90
17893;DHT22;9072;51.918;4.380;2023-09-12T05:29:47;18.60;99.90
17893;DHT22;9072;51.918;4.380;2023-09-12T05:32:15;18.60;99.90
17893;DHT22;9072;51.918;4.380;2023-09-12T05:34:42;18.50;99.90
17893;DHT22;9072;51.918;4.380;2023-09-12T05:37:17;18.60;99.90
17893;DHT22;9072;51.918;4.380;2023-09-12T05:39:46;18.60;99.90
17893;DHT22;9072;51.918;4.380;2023-09-12T05:42:15;18.50;99.90
17893;DHT22;9072;51.918;4.380;2023-09-12T05:44:48;18.50;99.90
17893;DHT22;9072;51.918;4.380;2023-09-12T05:47:17;18.50;99.90
17893;DHT22;9072;51.918;4.380;2023-09-12T05:49:46;18.50;99.90
17893;DHT22;9072;51.918;4.380;2023-09-12T05:52:14;18.50;99.90
17893;DHT22;9072;51.918;4.380;2023-09-12T05:54:41;18.40;99.90
17893;DHT22;9072;51.918;4.380;2023-09-12T05:57:09;18.40;99.90
17893;DHT22;9072;51.918;4.380;2023-09-12T05:59:44;18.40;99.90
17893;DHT22;9072;51.918;4.380;2023-09-12T06:02:17;18.40;99.90
17893;DHT22;9072;51.918;4.380;2023-09-12T06:04:44;18.30;99.90
17893;DHT22;9072;51.918;4.380;2023-09-12T06:07:16;18.30;99.90
17893;DHT22;9072;51.918;4.380;2023-09-12T06:09:43;18.30;99.90
17893;DHT22;9072;51.918;4.380;2023-09-12T06:12:12;18.30;99.90
17893;DHT22;9072;51.918;4.380;2023-09-12T06:14:42;18.40;99.90
17893;DHT22;9072;51.918;4.380;2023-09-12T06:17:11;18.40;99.90
17893;DHT22;9072;51.918;4.380;2023-09-12T06:19:38;18.50;99.90
17893;DHT22;9072;51.918;4.380;2023-09-12T06:22:05;18.60;99.90
17893;DHT22;9072;51.918;4.380;2023-09-12T06:24:37;18.60;99.90
17893;DHT22;9072;51.918;4.380;2023-09-12T06:27:07;18.80;99.90
17893;DHT22;9072;51.918;4.380;2023-09-12T06:29:35;18.90;99.90
17893;DHT22;9072;51.918;4.380;2023-09-12T06:32:12;19.00;99.90
17893;DHT22;9072;51.918;4.380;2023-09-12T06:34:42;19.00;99.90
17893;DHT22;9072;51.918;4.380;2023-09-12T06:37:13;19.00;99.90
17893;DHT22;9072;51.918;4.380;2023-09-12T06:39:40;19.10;99.90
17893;DHT22;9072;51.918;4.380;2023-09-12T06:42:09;19.30;99.90
17893;DHT22;9072;51.918;4.380;2023-09-12T06:44:37;19.50;99.90
17893;DHT22;9072;51.918;4.380;2023-09-12T06:47:06;19.70;99.90
17893;DHT22;9072;51.918;4.380;2023-09-12T06:49:34;19.90;99.90
17893;DHT22;9072;51.918;4.380;2023-09-12T06:52:03;19.90;99.90
17893;DHT22;9072;51.918;4.380;2023-09-12T06:54:38;20.00;99.90
17893;DHT22;9072;51.918;4.380;2023-09-12T06:57:07;20.00;99.90
17893;DHT22;9072;51.918;4.380;2023-09-12T06:59:34;20.10;99.90
17893;DHT22;9072;51.918;4.380;2023-09-12T07:02:04;20.20;99.90
17893;DHT22;9072;51.918;4.380;2023-09-12T07:04:36;20.20;99.90
17893;DHT22;9072;51.918;4.380;2023-09-12T07:07:07;20.10;99.90
17893;DHT22;9072;51.918;4.380;2023-09-12T07:09:52;20.10;99.90
17893;DHT22;9072;51.918;4.380;2023-09-12T07:12:22;20.20;99.90
17893;DHT22;9072;51.918;4.380;2023-09-12T07:22:01;20.30;99.90
17893;DHT22;9072;51.918;4.380;2023-09-12T07:24:28;20.30;99.90
17893;DHT22;9072;51.918;4.380;2023-09-12T07:26:57;20.30;99.90
17893;DHT22;9072;51.918;4.380;2023-09-12T07:29:24;20.30;99.90
17893;DHT22;9072;51.918;4.380;2023-09-12T07:31:52;20.30;99.90
17893;DHT22;9072;51.918;4.380;2023-09-12T07:34:19;20.40;99.90
17893;DHT22;9072;51.918;4.380;2023-09-12T07:36:51;20.40;99.90
17893;DHT22;9072;51.918;4.380;2023-09-12T07:39:25;20.30;99.90
17893;DHT22;9072;51.918;4.380;2023-09-12T07:41:52;20.20;99.90
17893;DHT22;9072;51.918;4.380;2023-09-12T07:44:19;20.20;99.90
17893;DHT22;9072;51.918;4.380;2023-09-12T07:46:51;20.30;99.90
17893;DHT22;9072;51.918;4.380;2023-09-12T07:49:19;20.30;99.90
17893;DHT22;9072;51.918;4.380;2023-09-12T07:51:53;20.30;99.90
17893;DHT22;9072;51.918;4.380;2023-09-12T07:54:27;20.40;99.90
17893;DHT22;9072;51.918;4.380;2023-09-12T07:56:56;20.40;99.90
17893;DHT22;9072;51.918;4.380;2023-09-12T07:59:26;20.50;99.90
17893;DHT22;9072;51.918;4.380;2023-09-12T08:01:53;20.60;99.90
17893;DHT22;9072;51.918;4.380;2023-09-12T08:04:22;20.70;99.90
17893;DHT22;9072;51.918;4.380;2023-09-12T08:06:49;20.80;99.90
17893;DHT22;9072;51.918;4.380;2023-09-12T08:09:17;20.80;99.90
17893;DHT22;9072;51.918;4.380;2023-09-12T08:11:52;20.90;99.90
17893;DHT22;9072;51.918;4.380;2023-09-12T08:14:19;21.10;99.90
17893;DHT22;9072;51.918;4.380;2023-09-12T08:16:47;21.30;99.90
17893;DHT22;9072;51.918;4.380;2023-09-12T08:19:19;21.30;99.90
17893;DHT22;9072;51.918;4.380;2023-09-12T08:21:48;21.50;99.90
17893;DHT22;9072;51.918;4.380;2023-09-12T08:24:16;21.80;99.90
17893;DHT22;9072;51.918;4.380;2023-09-12T08:26:53;22.00;99.90
17893;DHT22;9072;51.918;4.380;2023-09-12T08:29:24;22.10;99.90
17893;DHT22;9072;51.918;4.380;2023-09-12T08:31:52;22.20;99.90
17893;DHT22;9072;51.918;4.380;2023-09-12T08:34:21;22.20;99.90
17893;DHT22;9072;51.918;4.380;2023-09-12T08:36:48;22.30;99.90
17893;DHT22;9072;51.918;4.380;2023-09-12T08:39:23;22.30;99.90
17893;DHT22;9072;51.918;4.380;2023-09-12T08:41:50;22.30;99.90
17893;DHT22;9072;51.918;4.380;2023-09-12T08:44:18;22.40;99.90
17893;DHT22;9072;51.918;4.380;2023-09-12T08:46:47;22.60;99.90
17893;DHT22;9072;51.918;4.380;2023-09-12T08:49:15;22.50;99.90
17893;DHT22;9072;51.918;4.380;2023-09-12T08:51:43;22.50;99.90
17893;DHT22;9072;51.918;4.380;2023-09-12T08:54:14;22.30;99.90
17893;DHT22;9072;51.918;4.380;2023-09-12T08:56:44;22.50;99.90
17893;DHT22;9072;51.918;4.380;2023-09-12T08:59:14;22.60;99.90
17893;DHT22;9072;51.918;4.380;2023-09-12T09:01:43;22.60;99.90
17893;DHT22;9072;51.918;4.380;2023-09-12T09:04:13;22.50;99.90
17893;DHT22;9072;51.918;4.380;2023-09-12T09:06:41;22.40;99.90
17893;DHT22;9072;51.918;4.380;2023-09-12T09:09:14;22.40;99.90
17893;DHT22;9072;51.918;4.380;2023-09-12T09:11:47;22.60;99.90
17893;DHT22;9072;51.918;4.380;2023-09-12T09:14:21;22.80;99.90
17893;DHT22;9072;51.918;4.380;2023-09-12T09:16:49;23.00;99.90
17893;DHT22;9072;51.918;4.380;2023-09-12T09:19:17;23.00;99.90
17893;DHT22;9072;51.918;4.380;2023-09-12T09:21:48;22.90;99.90
17893;DHT22;9072;51.918;4.380;2023-09-12T09:24:19;23.00;99.90
17893;DHT22;9072;51.918;4.380;2023-09-12T09:26:51;23.00;99.90
17893;DHT22;9072;51.918;4.380;2023-09-12T09:29:26;23.10;99.90
17893;DHT22;9072;51.918;4.380;2023-09-12T09:31:59;23.50;99.90
17893;DHT22;9072;51.918;4.380;2023-09-12T09:34:29;24.10;99.90
17893;DHT22;9072;51.918;4.380;2023-09-12T09:37:03;24.60;99.90
17893;DHT22;9072;51.918;4.380;2023-09-12T09:39:31;24.70;99.90
17893;DHT22;9072;51.918;4.380;2023-09-12T09:42:04;24.60;99.90
17893;DHT22;9072;51.918;4.380;2023-09-12T09:44:39;24.60;99.90
17893;DHT22;9072;51.918;4.380;2023-09-12T09:47:09;24.40;99.90
17893;DHT22;9072;51.918;4.380;2023-09-12T09:49:45;24.50;99.90
17893;DHT22;9072;51.918;4.380;2023-09-12T09:52:15;25.00;99.90
17893;DHT22;9072;51.918;4.380;2023-09-12T09:54:46;25.30;99.90
17893;DHT22;9072;51.918;4.380;2023-09-12T09:57:14;25.20;99.90
17893;DHT22;9072;51.918;4.380;2023-09-12T09:59:48;25.10;99.90
17893;DHT22;9072;51.918;4.380;2023-09-12T10:02:19;25.00;99.90
17893;DHT22;9072;51.918;4.380;2023-09-12T10:04:54;25.20;99.90
17893;DHT22;9072;51.918;4.380;2023-09-12T10:07:22;25.30;99.90
17893;DHT22;9072;51.918;4.380;2023-09-12T10:09:52;25.40;99.90
17893;DHT22;9072;51.918;4.380;2023-09-12T10:12:20;25.60;99.90
17893;DHT22;9072;51.918;4.380;2023-09-12T10:14:50;25.60;99.90
17893;DHT22;9072;51.918;4.380;2023-09-12T10:17:19;26.10;99.90
17893;DHT22;9072;51.918;4.380;2023-09-12T10:19:54;26.30;99.90
17893;DHT22;9072;51.918;4.380;2023-09-12T10:22:27;26.10;99.90
17893;DHT22;9072;51.918;4.380;2023-09-12T10:24:56;25.80;99.90
17893;DHT22;9072;51.918;4.380;2023-09-12T10:27:24;26.00;99.90
17893;DHT22;9072;51.918;4.380;2023-09-12T10:29:52;26.40;99.90
17893;DHT22;9072;51.918;4.380;2023-09-12T10:32:20;27.10;99.90
17893;DHT22;9072;51.918;4.380;2023-09-12T10:34:58;27.50;99.90
17893;DHT22;9072;51.918;4.380;2023-09-12T10:37:35;28.30;99.90
17893;DHT22;9072;51.918;4.380;2023-09-12T10:40:26;28.50;99.90
17893;DHT22;9072;51.918;4.380;2023-09-12T10:43:03;28.70;99.90
17893;DHT22;9072;51.918;4.380;2023-09-12T10:45:43;28.40;99.90
17893;DHT22;9072;51.918;4.380;2023-09-12T10:48:19;28.00;99.90
17893;DHT22;9072;51.918;4.380;2023-09-12T10:50:57;28.00;99.90
17893;DHT22;9072;51.918;4.380;2023-09-12T10:53:33;27.60;99.90
17893;DHT22;9072;51.918;4.380;2023-09-12T10:56:18;27.50;99.90
17893;DHT22;9072;51.918;4.380;2023-09-12T10:59:13;27.70;99.90
17893;DHT22;9072;51.918;4.380;2023-09-12T11:01:52;28.10;99.90
17893;DHT22;9072;51.918;4.380;2023-09-12T11:04:33;27.80;99.90
17893;DHT22;9072;51.918;4.380;2023-09-12T11:07:43;27.20;99.90
17893;DHT22;9072;51.918;4.380;2023-09-12T11:10:29;26.70;99.90
17893;DHT22;9072;51.918;4.380;2023-09-12T11:13:08;26.30;99.90
17893;DHT22;9072;51.918;4.380;2023-09-12T11:16:14;26.40;99.90
17893;DHT22;9072;51.918;4.380;2023-09-12T11:19:33;26.50;99.90
17893;DHT22;9072;51.918;4.380;2023-09-12T11:22:39;26.60;99.90
17893;DHT22;9072;51.918;4.380;2023-09-12T11:28:31;25.80;99.90
17893;DHT22;9072;51.918;4.380;2023-09-12T11:31:27;25.80;99.90
17893;DHT22;9072;51.918;4.380;2023-09-12T11:33:54;25.80;99.90
17893;DHT22;9072;51.918;4.380;2023-09-12T11:36:21;26.20;99.90
17893;DHT22;9072;51.918;4.380;2023-09-12T11:38:49;26.40;99.90
17893;DHT22;9072;51.918;4.380;2023-09-12T11:41:40;26.70;99.90
17893;DHT22;9072;51.918;4.380;2023-09-12T11:44:09;26.70;99.90
17893;DHT22;9072;51.918;4.380;2023-09-12T11:46:38;26.50;99.90
17893;DHT22;9072;51.918;4.380;2023-09-12T11:49:06;26.70;99.90
17893;DHT22;9072;51.918;4.380;2023-09-12T11:51:33;26.80;99.90
17893;DHT22;9072;51.918;4.380;2023-09-12T11:54:01;26.70;99.90
17893;DHT22;9072;51.918;4.380;2023-09-12T11:56:29;26.80;99.90
17893;DHT22;9072;51.918;4.380;2023-09-12T11:58:57;27.40;99.90
17893;DHT22;9072;51.918;4.380;2023-09-12T12:01:27;27.50;99.90
17893;DHT22;9072;51.918;4.380;2023-09-12T12:03:55;27.60;99.90
17893;DHT22;9072;51.918;4.380;2023-09-12T12:06:23;27.40;99.90
17893;DHT22;9072;51.918;4.380;2023-09-12T12:08:52;27.40;99.90
17893;DHT22;9072;51.918;4.380;2023-09-12T12:11:20;27.30;99.90
17893;DHT22;9072;51.918;4.380;2023-09-12T12:13:49;27.20;99.90
17893;DHT22;9072;51.918;4.380;2023-09-12T12:16:17;27.20;99.90
17893;DHT22;9072;51.918;4.380;2023-09-12T12:18:46;26.90;99.90
17893;DHT22;9072;51.918;4.380;2023-09-12T12:21:20;27.00;99.90
17893;DHT22;9072;51.918;4.380;2023-09-12T12:23:57;27.20;99.90
17893;DHT22;9072;51.918;4.380;2023-09-12T12:26:25;27.20;99.90
17893;DHT22;9072;51.918;4.380;2023-09-12T12:28:52;26.90;99.90
17893;DHT22;9072;51.918;4.380;2023-09-12T12:31:23;26.70;99.90
17893;DHT22;9072;51.918;4.380;2023-09-12T12:33:54;26.70;99.90
17893;DHT22;9072;51.918;4.380;2023-09-12T12:36:22;26.50;99.90
17893;DHT22;9072;51.918;4.380;2023-09-12T12:38:52;26.50;99.90
17893;DHT22;9072;51.918;4.380;2023-09-12T12:41:26;26.30;99.90
17893;DHT22;9072;51.918;4.380;2023-09-12T12:43:55;26.30;99.90
17893;DHT22;9072;51.918;4.380;2023-09-12T12:46:24;26.10;99.90
17893;DHT22;9072;51.918;4.380;2023-09-12T12:48:52;26.20;99.90
17893;DHT22;9072;51.918;4.380;2023-09-12T12:51:22;26.00;99.90
17893;DHT22;9072;51.918;4.380;2023-09-12T12:53:51;26.10;99.90
17893;DHT22;9072;51.918;4.380;2023-09-12T12:56:19;26.40;99.90
17893;DHT22;9072;51.918;4.380;2023-09-12T12:58:48;26.40;99.90
17893;DHT22;9072;51.918;4.380;2023-09-12T13:01:16;26.50;99.90
17893;DHT22;9072;51.918;4.380;2023-09-12T13:03:44;26.50;99.90
17893;DHT22;9072;51.918;4.380;2023-09-12T13:06:12;26.50;99.90
17893;DHT22;9072;51.918;4.380;2023-09-12T13:08:47;26.60;99.90
17893;DHT22;9072;51.918;4.380;2023-09-12T13:11:15;26.60;99.90
17893;DHT22;9072;51.918;4.380;2023-09-12T13:13:43;26.70;99.90
17893;DHT22;9072;51.918;4.380;2023-09-12T13:16:12;26.90;99.90
17893;DHT22;9072;51.918;4.380;2023-09-12T13:18:40;26.80;99.90
17893;DHT22;9072;51.918;4.380;2023-09-12T13:21:07;26.40;99.90
17893;DHT22;9072;51.918;4.380;2023-09-12T13:23:36;26.30;99.90
17893;DHT22;9072;51.918;4.380;2023-09-12T13:26:06;26.20;99.90
17893;DHT22;9072;51.918;4.380;2023-09-12T13:28:33;26.00;99.90
17893;DHT22;9072;51.918;4.380;2023-09-12T13:31:09;25.80;99.90
17893;DHT22;9072;51.918;4.380;2023-09-12T13:33:39;25.60;99.90
17893;DHT22;9072;51.918;4.380;2023-09-12T13:36:07;25.50;99.90
17893;DHT22;9072;51.918;4.380;2023-09-12T13:38:40;25.50;99.90
17893;DHT22;9072;51.918;4.380;2023-09-12T13:41:09;25.60;99.90
17893;DHT22;9072;51.918;4.380;2023-09-12T13:43:36;25.80;99.90
17893;DHT22;9072;51.918;4.380;2023-09-12T13:46:03;25.90;99.90
17893;DHT22;9072;51.918;4.380;2023-09-12T13:48:35;26.10;99.90
17893;DHT22;9072;51.918;4.380;2023-09-12T13:51:02;26.10;99.90
17893;DHT22;9072;51.918;4.380;2023-09-12T13:53:30;26.40;99.90
17893;DHT22;9072;51.918;4.380;2023-09-12T13:55:58;26.50;99.90
17893;DHT22;9072;51.918;4.380;2023-09-12T13:58:32;26.80;99.90
17893;DHT22;9072;51.918;4.380;2023-09-12T14:01:02;27.10;99.90
17893;DHT22;9072;51.918;4.380;2023-09-12T14:03:57;27.20;99.90
17893;DHT22;9072;51.918;4.380;2023-09-12T14:06:58;27.40;99.90
17893;DHT22;9072;51.918;4.380;2023-09-12T14:09:26;26.90;99.90
17893;DHT22;9072;51.918;4.380;2023-09-12T14:11:56;27.00;99.90
17893;DHT22;9072;51.918;4.380;2023-09-12T14:14:26;27.10;99.90
17893;DHT22;9072;51.918;4.380;2023-09-12T14:16:53;27.30;99.90
17893;DHT22;9072;51.918;4.380;2023-09-12T14:19:22;27.40;99.90
17893;DHT22;9072;51.918;4.380;2023-09-12T14:21:49;27.50;99.90
17893;DHT22;9072;51.918;4.380;2023-09-12T14:24:16;27.50;99.90
17893;DHT22;9072;51.918;4.380;2023-09-12T14:26:46;27.50;99.90
17893;DHT22;9072;51.918;4.380;2023-09-12T14:29:20;27.40;99.90
17893;DHT22;9072;51.918;4.380;2023-09-12T14:31:50;27.20;99.90
17893;DHT22;9072;51.918;4.380;2023-09-12T14:34:23;27.10;99.90
17893;DHT22;9072;51.918;4.380;2023-09-12T14:36:54;26.90;99.90
17893;DHT22;9072;51.918;4.380;2023-09-12T14:39:26;26.60;99.90
17893;DHT22;9072;51.918;4.380;2023-09-12T14:41:56;26.30;99.90
17893;DHT22;9072;51.918;4.380;2023-09-12T14:44:25;26.20;99.90
17893;DHT22;9072;51.918;4.380;2023-09-12T14:46:54;26.00;99.90
17893;DHT22;9072;51.918;4.380;2023-09-12T14:49:21;25.80;99.90
17893;DHT22;9072;51.918;4.380;2023-09-12T14:51:48;25.50;99.90
17893;DHT22;9072;51.918;4.380;2023-09-12T14:54:15;25.50;99.90
17893;DHT22;9072;51.918;4.380;2023-09-12T14:56:42;25.60;99.90
17893;DHT22;9072;51.918;4.380;2023-09-12T14:59:09;25.50;99.90
17893;DHT22;9072;51.918;4.380;2023-09-12T15:01:38;25.60;99.90
17893;DHT22;9072;51.918;4.380;2023-09-12T15:04:06;25.60;99.90
17893;DHT22;9072;51.918;4.380;2023-09-12T15:06:33;25.60;99.90
17893;DHT22;9072;51.918;4.380;2023-09-12T15:09:00;25.50;99.90
17893;DHT22;9072;51.918;4.380;2023-09-12T15:11:28;25.30;99.90
17893;DHT22;9072;51.918;4.380;2023-09-12T15:13:56;25.30;99.90
17893;DHT22;9072;51.918;4.380;2023-09-12T15:16:25;25.10;99.90
17893;DHT22;9072;51.918;4.380;2023-09-12T15:19:00;24.80;99.90
17893;DHT22;9072;51.918;4.380;2023-09-12T15:21:28;24.60;99.90
17893;DHT22;9072;51.918;4.380;2023-09-12T15:23:55;24.30;99.90
17893;DHT22;9072;51.918;4.380;2023-09-12T15:26:22;24.30;99.90
17893;DHT22;9072;51.918;4.380;2023-09-12T15:28:49;24.20;99.90
17893;DHT22;9072;51.918;4.380;2023-09-12T15:31:16;24.10;99.90
17893;DHT22;9072;51.918;4.380;2023-09-12T15:33:44;24.10;99.90
17893;DHT22;9072;51.918;4.380;2023-09-12T15:36:11;24.10;99.90
17893;DHT22;9072;51.918;4.380;2023-09-12T15:38:40;23.90;99.90
17893;DHT22;9072;51.918;4.380;2023-09-12T15:41:09;24.00;99.90
17893;DHT22;9072;51.918;4.380;2023-09-12T15:43:37;23.90;99.90
17893;DHT22;9072;51.918;4.380;2023-09-12T15:46:04;23.90;99.90
17893;DHT22;9072;51.918;4.380;2023-09-12T15:48:31;23.80;99.90
17893;DHT22;9072;51.918;4.380;2023-09-12T15:50:58;23.70;99.90
17893;DHT22;9072;51.918;4.380;2023-09-12T15:53:25;23.80;99.90
17893;DHT22;9072;51.918;4.380;2023-09-12T15:55:54;23.80;99.90
17893;DHT22;9072;51.918;4.380;2023-09-12T15:58:21;23.70;99.90
17893;DHT22;9072;51.918;4.380;2023-09-12T16:00:48;23.70;99.90
17893;DHT22;9072;51.918;4.380;2023-09-12T16:03:15;23.70;99.90
17893;DHT22;9072;51.918;4.380;2023-09-12T16:05:42;23.60;99.90
17893;DHT22;9072;51.918;4.380;2023-09-12T16:08:09;23.60;99.90
17893;DHT22;9072;51.918;4.380;2023-09-12T16:10:37;23.60;99.90
17893;DHT22;9072;51.918;4.380;2023-09-12T16:13:05;23.40;99.90
17893;DHT22;9072;51.918;4.380;2023-09-12T16:15:33;23.40;99.90
17893;DHT22;9072;51.918;4.380;2023-09-12T16:18:00;23.40;99.90
17893;DHT22;9072;51.918;4.380;2023-09-12T16:20:27;23.50;99.90
17893;DHT22;9072;51.918;4.380;2023-09-12T16:22:54;23.60;99.90
17893;DHT22;9072;51.918;4.380;2023-09-12T16:25:22;23.60;99.90
17893;DHT22;9072;51.918;4.380;2023-09-12T16:27:49;23.70;99.90
17893;DHT22;9072;51.918;4.380;2023-09-12T16:30:21;23.70;99.90
17893;DHT22;9072;51.918;4.380;2023-09-12T16:32:50;23.70;99.90